Sirios Cement IV — 9HQE8 — position and weather

sailwx.info

Track history (hours):
 
Tides and Currents Weather Stations Pressure Air Temp Water Temp Dewpoint Dewpoint Depression Visibility Wind Speed Wind Dir Waves Ship Positions

Sirios Cement IV

Last reported at 2014-Oct-20 09:15 UTC. Time now 2014-Oct-25 21:18 UTC.
Position N 37°44' E 023°40'.

Length 134 m; draft 8.2 m.

Type: Cargo ship. MMSI: 256278000.

Date/timePositionNaut miles runAvg speedWind from/ knotsBaromVisibWave heightAir tempDewpointWater temp
2014-Oct-20 09:15N 37°44' E 023°40'710.0
2014-Oct-20 08:33N 37°50' E 023°37'8 8.4
2014-Oct-20 07:33N 37°58' E 023°33'  
2014-Oct-17 18:33N 38°03' E 023°32'0 0.0
2014-Oct-17 17:09N 38°03' E 023°32'0 0.0
2014-Oct-17 15:33N 38°03' E 023°32'0 0.0
2014-Oct-17 11:15N 38°03' E 023°32'0 0.0
2014-Oct-17 10:33N 38°03' E 023°32'0 0.0
2014-Oct-17 09:33N 38°03' E 023°32'  
2014-Oct-14 04:25N 38°02' E 023°33'0 0.0
2014-Oct-13 23:34N 38°02' E 023°33'0 0.0
2014-Oct-13 22:04N 38°02' E 023°33'0 0.0
2014-Oct-13 21:31N 38°02' E 023°33'0 0.0
2014-Oct-13 20:28N 38°02' E 023°33'3 0.2
2014-Oct-13 06:32N 37°59' E 023°33'4 4.2
2014-Oct-13 05:33N 37°56' E 023°36'0 0.3
2014-Oct-13 04:33N 37°56' E 023°36'1 0.9
2014-Oct-13 03:33N 37°55' E 023°35'2 2.1
2014-Oct-13 02:31N 37°53' E 023°33'0 0.0
2014-Oct-13 01:31N 37°53' E 023°33'0 0.0
2014-Oct-13 00:31N 37°53' E 023°33'0 0.0
2014-Oct-12 23:31N 37°53' E 023°33'0 0.0
2014-Oct-12 22:31N 37°53' E 023°33'0 0.1
2014-Oct-12 21:31N 37°53' E 023°33'0 0.0
2014-Oct-12 20:31N 37°53' E 023°33'0 0.0
2014-Oct-12 19:31N 37°53' E 023°33'0 0.0
2014-Oct-12 18:31N 37°53' E 023°33'0 0.0
2014-Oct-12 17:31N 37°54' E 023°33'0 0.0
2014-Oct-12 16:31N 37°54' E 023°33'0 0.0
2014-Oct-12 15:31N 37°53' E 023°33'0 0.0
2014-Oct-12 14:31N 37°54' E 023°33'0 0.0
2014-Oct-12 13:31N 37°54' E 023°33'0 0.0
2014-Oct-12 12:31N 37°54' E 023°33'0 0.0
2014-Oct-12 11:31N 37°54' E 023°33'0 0.0
2014-Oct-12 10:31N 37°54' E 023°33'0 0.0
2014-Oct-12 09:31N 37°53' E 023°33'0 0.1
2014-Oct-12 08:31N 37°53' E 023°33'0 0.1
2014-Oct-12 07:33N 37°53' E 023°33'7 6.9
2014-Oct-12 06:33N 37°49' E 023°40'  
Track history (hours):
 
Tides and Currents Weather Stations Pressure Air Temp Water Temp Dewpoint Dewpoint Depression Visibility Wind Speed Wind Dir Waves Ship Positions

Sirios Cement IV

Last reported at 2014-Oct-20 09:15 UTC. Time now 2014-Oct-25 21:18 UTC.
Position N 37°44' E 023°40'.

Length 134 m; draft 8.2 m.

Type: Cargo ship. MMSI: 256278000.

Date/timePositionNaut miles runAvg speedWind from/ knotsBaromVisibWave heightAir tempDewpointWater temp
2014-Oct-20 09:15N 37°44' E 023°40'710.0
2014-Oct-20 08:33N 37°50' E 023°37'8 8.4
2014-Oct-20 07:33N 37°58' E 023°33'  
2014-Oct-17 18:33N 38°03' E 023°32'0 0.0
2014-Oct-17 17:09N 38°03' E 023°32'0 0.0
2014-Oct-17 15:33N 38°03' E 023°32'0 0.0
2014-Oct-17 11:15N 38°03' E 023°32'0 0.0
2014-Oct-17 10:33N 38°03' E 023°32'0 0.0
2014-Oct-17 09:33N 38°03' E 023°32'  
2014-Oct-14 04:25N 38°02' E 023°33'0 0.0
2014-Oct-13 23:34N 38°02' E 023°33'0 0.0
2014-Oct-13 22:04N 38°02' E 023°33'0 0.0
2014-Oct-13 21:31N 38°02' E 023°33'0 0.0
2014-Oct-13 20:28N 38°02' E 023°33'3 0.2
2014-Oct-13 06:32N 37°59' E 023°33'4 4.2
2014-Oct-13 05:33N 37°56' E 023°36'0 0.3
2014-Oct-13 04:33N 37°56' E 023°36'1 0.9
2014-Oct-13 03:33N 37°55' E 023°35'2 2.1
2014-Oct-13 02:31N 37°53' E 023°33'0 0.0
2014-Oct-13 01:31N 37°53' E 023°33'0 0.0
2014-Oct-13 00:31N 37°53' E 023°33'0 0.0
2014-Oct-12 23:31N 37°53' E 023°33'0 0.0
2014-Oct-12 22:31N 37°53' E 023°33'0 0.1
2014-Oct-12 21:31N 37°53' E 023°33'0 0.0
2014-Oct-12 20:31N 37°53' E 023°33'0 0.0
2014-Oct-12 19:31N 37°53' E 023°33'0 0.0
2014-Oct-12 18:31N 37°53' E 023°33'0 0.0
2014-Oct-12 17:31N 37°54' E 023°33'0 0.0
2014-Oct-12 16:31N 37°54' E 023°33'0 0.0
2014-Oct-12 15:31N 37°53' E 023°33'0 0.0
2014-Oct-12 14:31N 37°54' E 023°33'0 0.0
2014-Oct-12 13:31N 37°54' E 023°33'0 0.0
2014-Oct-12 12:31N 37°54' E 023°33'0 0.0
2014-Oct-12 11:31N 37°54' E 023°33'0 0.0
2014-Oct-12 10:31N 37°54' E 023°33'0 0.0
2014-Oct-12 09:31N 37°53' E 023°33'0 0.1
2014-Oct-12 08:31N 37°53' E 023°33'0 0.1
2014-Oct-12 07:33N 37°53' E 023°33'7 6.9
2014-Oct-12 06:33N 37°49' E 023°40'  

Dump ship's entire track history